Rechercher aéroport 
image banner adimage banner ad
image banner ad

FYGF - Grootfontein

Situé à Grootfontein, Namibia

ICAO - FYGF, IATA - GFY

Données fournies par Airmate  

Information générale

Coordonnées: S19°36'0" E18°7'60"
Élévation : 4636 feet MSL.
 
Voir autres Aéroports à Otjozondjupa

Données opérationnelles

Accessible au public
Heure actuelle UTC:
Heure actuelle locale:
Météo
METAR: FYGF 280700Z 18002KT 9999 SCT025 BKN100 22/17 Q1018
TAF: TAF FYGF 280500Z 2806/2815 00000KT 9999 SCT020 BECMG 2808/2810 15006KT SCT035
Voir NOTAMs / SUP AIP / TFR affectant cet aéroport [VIEW]
Fréquences de communication: [VIEW]

Pistes:

Identifiant RWYQFULongueur (ft)Largeur (ft)SurfaceLDA (ft)
0868°11680148ASP
2611680148
17341298
35341298

Coordonnées de l'aéroport

Adresse: Grootfontein Namibia

Vue satellite de FYGF